Time;durP1;ratioP1;P1;durP2;ratioP2;P2;SDS_P1;SDS_P2;PMS_P1;PMS_P2;Temp;Humidity;BMP_temperature;BMP_pressure;BME280_temperature;BME280_humidity;BME280_pressure;Samples;Min_cycle;Max_cycle;Signal;HPM_P1;HPM_P2
2023/08/24 00:00:56;;;;;;;10.90;3.87;;;21.50;99.90;;;;;;7284315;19;20178;-76
2023/08/24 00:03:22;;;;;;;9.53;3.93;;;21.50;99.90;;;;;;7283538;19;20189;-76
2023/08/24 00:05:48;;;;;;;13.23;4.17;;;21.50;99.90;;;;;;7283052;19;20200;-77
2023/08/24 00:08:14;;;;;;;10.27;4.17;;;21.50;99.90;;;;;;7283613;19;20189;-76
2023/08/24 00:10:44;;;;;;;7.80;3.50;;;21.60;99.90;;;;;;7282243;19;20185;-78
2023/08/24 00:13:09;;;;;;;11.13;4.00;;;21.60;99.90;;;;;;7282620;19;20676;-77
2023/08/24 00:15:36;;;;;;;8.53;3.90;;;21.60;99.90;;;;;;7295030;19;20276;-76
2023/08/24 00:18:02;;;;;;;8.87;3.80;;;21.50;99.90;;;;;;7304773;19;20268;-76
2023/08/24 00:20:28;;;;;;;10.10;4.10;;;21.50;99.90;;;;;;7282942;19;20188;-77
2023/08/24 00:22:54;;;;;;;8.77;4.13;;;21.50;99.90;;;;;;7283876;19;20188;-76
2023/08/24 00:25:20;;;;;;;11.10;4.00;;;21.50;99.90;;;;;;7281307;19;20557;-76
2023/08/24 00:27:45;;;;;;;17.27;3.57;;;21.50;99.90;;;;;;7281984;19;20192;-76
2023/08/24 00:30:11;;;;;;;9.70;3.90;;;21.50;99.90;;;;;;7282196;19;20176;-76
2023/08/24 00:32:37;;;;;;;10.30;4.00;;;21.50;99.90;;;;;;7281734;19;20188;-76
2023/08/24 00:35:06;;;;;;;7.83;4.07;;;21.50;99.90;;;;;;7303672;19;20180;-76
2023/08/24 00:37:31;;;;;;;9.10;4.17;;;21.40;99.90;;;;;;7282701;19;20206;-76
2023/08/24 00:40:03;;;;;;;9.43;3.77;;;21.30;99.90;;;;;;7283481;19;20181;-77
2023/08/24 00:42:29;;;;;;;8.30;4.67;;;21.30;99.90;;;;;;7281691;19;20249;-76
2023/08/24 00:44:55;;;;;;;8.87;4.43;;;21.30;99.90;;;;;;7281285;19;20205;-77
2023/08/24 00:47:21;;;;;;;9.30;3.57;;;21.30;99.90;;;;;;7283484;19;20184;-76
2023/08/24 00:49:47;;;;;;;8.47;3.70;;;21.30;99.90;;;;;;7280963;19;20185;-76
2023/08/24 00:52:14;;;;;;;9.63;4.40;;;21.20;99.90;;;;;;7279800;19;20184;-77
2023/08/24 00:54:41;;;;;;;10.03;4.20;;;21.20;99.90;;;;;;7280210;19;20189;-77
2023/08/24 00:57:06;;;;;;;11.23;4.17;;;21.20;99.90;;;;;;7282017;19;20244;-77
2023/08/24 00:59:34;;;;;;;9.23;4.40;;;21.30;99.90;;;;;;7302043;19;20260;-77
2023/08/24 01:02:00;;;;;;;9.57;4.40;;;21.30;99.90;;;;;;7283929;19;20177;-77
2023/08/24 01:04:25;;;;;;;7.17;3.70;;;21.30;99.90;;;;;;7280280;19;20204;-77
2023/08/24 01:06:52;;;;;;;7.73;4.30;;;21.30;99.90;;;;;;7281808;19;20192;-77
2023/08/24 01:09:19;;;;;;;7.90;4.17;;;21.40;99.90;;;;;;7280291;19;20681;-76
2023/08/24 01:11:51;;;;;;;10.73;4.53;;;21.50;99.90;;;;;;7281819;19;20188;-78
2023/08/24 01:14:30;;;;;;;11.13;4.47;;;21.50;99.90;;;;;;7280352;19;20206;-77
2023/08/24 01:17:01;;;;;;;10.13;4.17;;;21.50;99.90;;;;;;7281266;19;20622;-77
2023/08/24 01:19:39;;;;;;;11.70;4.03;;;21.60;99.90;;;;;;7280603;19;20196;-76
2023/08/24 01:22:38;;;;;;;11.17;4.20;;;21.70;99.90;;;;;;7276865;19;20523;-76
2023/08/24 01:25:12;;;;;;;9.10;4.07;;;21.80;99.90;;;;;;7281512;19;20979;-76
2023/08/24 01:27:40;;;;;;;11.93;4.27;;;21.90;99.90;;;;;;7260330;19;20197;-76
2023/08/24 01:30:06;;;;;;;12.23;4.40;;;21.90;99.90;;;;;;7291310;19;20222;-75
2023/08/24 01:32:34;;;;;;;9.83;4.30;;;21.90;99.90;;;;;;7301642;19;20191;-76
2023/08/24 01:35:05;;;;;;;10.20;4.27;;;21.90;99.90;;;;;;7281883;19;20181;-76
2023/08/24 01:37:33;;;;;;;9.33;4.20;;;21.80;99.90;;;;;;7280490;19;20229;-76
2023/08/24 01:40:12;;;;;;;11.40;4.00;;;21.90;99.90;;;;;;7278171;19;20184;-76
2023/08/24 01:42:47;;;;;;;8.10;4.37;;;21.90;99.90;;;;;;7258306;19;20188;-77
2023/08/24 01:45:16;;;;;;;11.50;4.40;;;22.10;99.90;;;;;;7279796;19;20184;-77
2023/08/24 01:47:43;;;;;;;8.70;4.20;;;22.10;99.90;;;;;;7281187;19;20291;-76
2023/08/24 01:50:09;;;;;;;8.67;4.10;;;22.20;99.90;;;;;;7279761;19;20193;-76
2023/08/24 01:52:35;;;;;;;10.20;4.40;;;22.20;99.90;;;;;;7301781;19;20246;-76
2023/08/24 01:55:02;;;;;;;8.10;3.93;;;22.20;99.90;;;;;;7302903;19;20203;-77
2023/08/24 01:57:28;;;;;;;7.90;3.67;;;22.20;99.90;;;;;;7279662;19;20185;-77
2023/08/24 01:59:54;;;;;;;10.83;4.00;;;22.20;99.90;;;;;;7280525;19;20181;-77
2023/08/24 02:02:21;;;;;;;8.53;4.27;;;22.30;99.90;;;;;;7280857;19;20188;-76
2023/08/24 02:04:46;;;;;;;7.40;4.10;;;22.30;99.90;;;;;;7279293;19;20219;-76
2023/08/24 02:07:12;;;;;;;12.23;4.20;;;22.30;99.90;;;;;;7279212;19;20185;-76
2023/08/24 02:09:38;;;;;;;8.87;3.63;;;22.00;99.90;;;;;;7279423;19;20192;-76
2023/08/24 02:12:04;;;;;;;10.27;4.03;;;21.70;99.90;;;;;;7300344;19;20196;-76
2023/08/24 02:14:29;;;;;;;9.67;3.90;;;21.50;99.90;;;;;;7279825;19;20193;-76
2023/08/24 02:16:56;;;;;;;7.67;3.77;;;21.40;99.90;;;;;;7279990;19;20191;-76
2023/08/24 02:19:21;;;;;;;7.57;3.83;;;21.30;99.90;;;;;;7278285;19;20655;-76
2023/08/24 02:21:47;;;;;;;8.80;4.00;;;21.20;99.90;;;;;;7279742;19;20251;-76
2023/08/24 02:24:13;;;;;;;9.00;4.07;;;21.20;99.90;;;;;;7278884;19;20683;-76
2023/08/24 02:26:38;;;;;;;10.53;4.67;;;21.30;99.90;;;;;;7278227;19;20199;-76
2023/08/24 02:29:04;;;;;;;7.40;4.07;;;21.40;99.90;;;;;;7301063;19;20207;-76
2023/08/24 02:31:30;;;;;;;10.10;4.03;;;21.40;99.90;;;;;;7279887;19;20735;-77
2023/08/24 02:33:56;;;;;;;14.73;4.80;;;21.50;99.90;;;;;;7281059;19;20348;-76
2023/08/24 02:36:22;;;;;;;13.83;4.77;;;21.60;99.90;;;;;;7280530;19;20196;-77
2023/08/24 02:38:47;;;;;;;11.57;4.73;;;21.60;99.90;;;;;;7278271;19;20196;-76
2023/08/24 02:41:14;;;;;;;9.20;4.73;;;21.80;99.90;;;;;;7279351;19;20252;-77
2023/08/24 02:43:40;;;;;;;10.97;4.60;;;21.90;99.90;;;;;;7278109;19;20192;-76
2023/08/24 02:46:08;;;;;;;11.43;4.80;;;21.90;99.90;;;;;;7296244;19;20517;-76
2023/08/24 02:48:34;;;;;;;12.50;5.00;;;21.80;99.90;;;;;;7301889;19;20201;-76
2023/08/24 02:51:03;;;;;;;14.23;5.03;;;21.80;99.90;;;;;;7281275;19;20786;-76
2023/08/24 02:53:29;;;;;;;10.10;4.87;;;21.80;99.90;;;;;;7286428;19;20234;-77
2023/08/24 02:55:56;;;;;;;11.03;5.20;;;21.80;99.90;;;;;;7285813;19;20205;-76
2023/08/24 02:58:22;;;;;;;12.17;4.60;;;21.70;99.90;;;;;;7284237;19;20185;-76
2023/08/24 03:00:48;;;;;;;11.60;5.13;;;21.60;99.90;;;;;;7286907;19;20263;-76
2023/08/24 03:03:15;;;;;;;11.77;5.50;;;21.50;99.90;;;;;;7287117;19;20220;-77
2023/08/24 03:05:41;;;;;;;14.87;4.87;;;21.50;99.90;;;;;;7287161;19;20199;-76
2023/08/24 03:08:07;;;;;;;14.43;6.10;;;21.40;99.90;;;;;;7292586;19;20185;-75
2023/08/24 03:10:36;;;;;;;9.03;4.97;;;21.30;99.90;;;;;;7308209;19;20191;-76
2023/08/24 03:13:05;;;;;;;10.60;5.27;;;21.10;99.90;;;;;;7286289;19;20196;-76
2023/08/24 03:15:31;;;;;;;14.03;5.50;;;21.00;99.90;;;;;;7287249;19;20223;-76
2023/08/24 03:17:57;;;;;;;12.17;5.30;;;20.90;99.90;;;;;;7286257;19;20195;-76
2023/08/24 03:20:23;;;;;;;10.10;5.33;;;20.80;99.90;;;;;;7285359;19;20193;-76
2023/08/24 03:22:49;;;;;;;11.33;5.40;;;20.70;99.90;;;;;;7285424;19;20596;-76
2023/08/24 03:25:14;;;;;;;12.07;5.30;;;20.70;99.90;;;;;;7285577;19;20268;-76
2023/08/24 03:27:40;;;;;;;12.20;5.97;;;20.60;99.90;;;;;;7285712;19;20215;-76
2023/08/24 03:30:07;;;;;;;13.03;5.77;;;20.60;99.90;;;;;;7304378;19;20195;-75
2023/08/24 03:32:32;;;;;;;15.40;5.47;;;20.50;99.90;;;;;;7304470;19;20200;-76
2023/08/24 03:35:00;;;;;;;12.20;5.73;;;20.50;99.90;;;;;;7285116;19;20196;-75
2023/08/24 03:37:25;;;;;;;11.27;5.53;;;20.60;99.90;;;;;;7284477;19;20589;-76
2023/08/24 03:39:51;;;;;;;11.03;5.60;;;20.60;99.90;;;;;;7285698;19;20188;-76
2023/08/24 03:42:17;;;;;;;10.67;5.30;;;20.60;99.90;;;;;;7284907;19;20209;-76
2023/08/24 03:44:43;;;;;;;12.07;5.40;;;20.60;99.90;;;;;;7284944;19;20254;-76
2023/08/24 03:47:09;;;;;;;9.40;5.50;;;20.70;99.90;;;;;;7283730;19;20268;-76
2023/08/24 03:49:35;;;;;;;12.13;6.20;;;20.70;99.90;;;;;;7306070;19;20195;-76
2023/08/24 03:52:01;;;;;;;10.20;5.77;;;20.70;99.90;;;;;;7284267;19;20195;-76
2023/08/24 03:54:28;;;;;;;13.70;5.40;;;20.80;99.90;;;;;;7284590;19;20185;-76
2023/08/24 03:56:53;;;;;;;14.80;5.60;;;20.70;99.90;;;;;;7284590;19;20193;-77
2023/08/24 03:59:20;;;;;;;11.93;5.30;;;20.80;99.90;;;;;;7283134;19;20193;-77
2023/08/24 04:01:46;;;;;;;13.33;5.30;;;20.80;99.90;;;;;;7281994;19;20205;-76
2023/08/24 04:04:11;;;;;;;10.43;5.50;;;20.80;99.90;;;;;;7282282;19;20200;-76
2023/08/24 04:06:37;;;;;;;14.27;5.73;;;20.80;99.90;;;;;;7289881;19;20209;-76
2023/08/24 04:09:06;;;;;;;12.60;5.50;;;20.90;99.90;;;;;;7306282;19;20180;-76
2023/08/24 04:11:32;;;;;;;13.57;6.07;;;20.90;99.90;;;;;;7285340;19;20192;-76
2023/08/24 04:13:57;;;;;;;12.80;6.37;;;20.90;99.90;;;;;;7282490;19;20871;-76
2023/08/24 04:16:23;;;;;;;10.77;5.37;;;20.90;99.90;;;;;;7283304;19;20202;-76
2023/08/24 04:18:49;;;;;;;12.67;6.27;;;20.90;99.90;;;;;;7282810;19;20297;-77
2023/08/24 04:21:15;;;;;;;13.17;5.87;;;20.90;99.90;;;;;;7283579;19;20672;-78
2023/08/24 04:23:44;;;;;;;11.77;5.93;;;20.90;99.90;;;;;;7283986;19;20209;-77
2023/08/24 04:26:11;;;;;;;12.17;6.77;;;20.90;99.90;;;;;;7284036;19;20203;-77
2023/08/24 04:28:37;;;;;;;12.37;5.80;;;21.00;99.90;;;;;;7290114;19;20200;-77
2023/08/24 04:31:03;;;;;;;10.97;5.60;;;21.10;99.90;;;;;;7305248;19;20188;-77
2023/08/24 04:33:29;;;;;;;15.13;6.60;;;21.10;99.90;;;;;;7284628;19;20693;-77
2023/08/24 04:35:54;;;;;;;10.73;5.27;;;21.10;99.90;;;;;;7284249;19;20193;-77
2023/08/24 04:38:20;;;;;;;15.00;6.57;;;21.20;99.90;;;;;;7281913;19;20189;-77
2023/08/24 04:40:48;;;;;;;13.37;5.77;;;21.20;99.90;;;;;;7280439;19;20188;-76
2023/08/24 04:43:14;;;;;;;15.70;6.17;;;21.20;99.90;;;;;;7279559;19;20663;-77
2023/08/24 04:45:39;;;;;;;13.57;5.90;;;21.30;99.90;;;;;;7281433;19;20188;-77
2023/08/24 04:48:05;;;;;;;18.07;5.87;;;21.20;99.90;;;;;;7304390;19;20189;-77
2023/08/24 04:50:31;;;;;;;15.80;6.23;;;21.20;99.90;;;;;;7280641;19;20189;-77
2023/08/24 04:52:57;;;;;;;11.37;6.20;;;21.20;99.90;;;;;;7283194;19;20514;-76
2023/08/24 04:55:23;;;;;;;12.30;5.57;;;21.20;99.90;;;;;;7283785;19;20202;-76
2023/08/24 04:57:49;;;;;;;11.87;5.67;;;21.30;99.90;;;;;;7282623;19;20192;-75
2023/08/24 05:00:16;;;;;;;12.23;5.27;;;21.20;99.90;;;;;;7281143;19;20633;-74
2023/08/24 05:02:45;;;;;;;10.23;5.40;;;21.30;99.90;;;;;;7283432;19;20187;-75
2023/08/24 05:05:10;;;;;;;13.33;5.50;;;21.40;99.90;;;;;;7283039;19;20193;-74
2023/08/24 05:07:40;;;;;;;11.03;5.67;;;21.50;99.90;;;;;;7301653;19;20189;-74
2023/08/24 05:10:06;;;;;;;10.73;5.30;;;21.50;99.90;;;;;;7306074;19;20203;-75
2023/08/24 05:12:35;;;;;;;13.97;5.30;;;21.60;99.90;;;;;;7280465;19;20188;-76
2023/08/24 05:15:02;;;;;;;10.37;5.33;;;21.60;99.90;;;;;;7279515;19;20196;-75
2023/08/24 05:17:28;;;;;;;14.47;4.93;;;21.70;99.90;;;;;;7283071;19;20185;-76
2023/08/24 05:19:54;;;;;;;12.13;5.47;;;21.80;99.90;;;;;;7281139;19;20216;-76
2023/08/24 05:22:20;;;;;;;10.77;5.03;;;21.90;99.90;;;;;;7281473;19;20180;-76
2023/08/24 05:24:46;;;;;;;9.43;4.73;;;22.00;99.90;;;;;;7281601;19;20189;-76
2023/08/24 05:27:12;;;;;;;11.17;4.53;;;22.10;99.90;;;;;;7282320;19;20672;-76
2023/08/24 05:29:38;;;;;;;11.43;5.07;;;22.30;99.90;;;;;;7285515;19;20189;-76
2023/08/24 05:32:04;;;;;;;10.20;4.83;;;22.50;99.90;;;;;;7303998;19;20549;-77
2023/08/24 05:34:29;;;;;;;10.27;4.37;;;22.90;99.90;;;;;;7281761;19;20534;-77
2023/08/24 05:36:55;;;;;;;14.50;4.63;;;23.40;99.90;;;;;;7282455;19;20676;-77
2023/08/24 05:39:21;;;;;;;10.97;4.53;;;24.10;99.90;;;;;;7282560;19;20188;-76
2023/08/24 05:41:51;;;;;;;11.97;4.63;;;25.00;99.90;;;;;;7280959;19;20186;-76
2023/08/24 05:44:17;;;;;;;16.47;4.97;;;25.70;99.90;;;;;;7282678;19;20191;-77
2023/08/24 05:46:43;;;;;;;15.55;5.13;;;26.10;99.90;;;;;;7281633;19;20181;-76
2023/08/24 05:49:09;;;;;;;20.35;5.05;;;26.40;99.90;;;;;;7282655;19;20534;-76
2023/08/24 05:51:35;;;;;;;14.50;4.35;;;26.50;99.90;;;;;;7303903;19;20204;-77
2023/08/24 05:54:01;;;;;;;14.90;4.47;;;26.40;99.90;;;;;;7284070;19;20205;-78
2023/08/24 05:56:27;;;;;;;22.55;4.68;;;26.40;99.90;;;;;;7280511;19;20182;-77
2023/08/24 05:58:54;;;;;;;21.45;4.80;;;26.50;99.90;;;;;;7279765;19;20189;-77
2023/08/24 06:01:20;;;;;;;20.55;4.60;;;26.80;99.90;;;;;;7278979;19;20185;-77
2023/08/24 06:03:46;;;;;;;18.70;4.55;;;27.20;99.90;;;;;;7281161;19;20524;-77
2023/08/24 06:06:12;;;;;;;22.17;4.82;;;27.80;99.90;;;;;;7280486;19;20247;-77
2023/08/24 06:08:38;;;;;;;29.05;5.35;;;28.00;99.90;;;;;;7288333;19;20224;-77
2023/08/24 06:11:03;;;;;;;24.08;5.22;;;28.00;99.90;;;;;;7302897;19;20304;-77
2023/08/24 06:13:29;;;;;;;20.73;4.97;;;28.10;99.90;;;;;;7279497;19;20201;-76
2023/08/24 06:15:55;;;;;;;21.15;4.63;;;28.30;99.90;;;;;;7278801;19;20681;-76
2023/08/24 06:18:20;;;;;;;16.00;4.45;;;28.40;99.90;;;;;;7281683;19;20189;-76
2023/08/24 06:20:48;;;;;;;19.42;4.00;;;28.80;99.90;;;;;;7282194;19;20201;-77
2023/08/24 06:23:18;;;;;;;12.73;3.53;;;29.50;99.90;;;;;;7281153;19;20193;-76
2023/08/24 06:25:44;;;;;;;14.43;3.83;;;30.00;99.90;;;;;;7278693;19;20185;-76
2023/08/24 06:28:10;;;;;;;8.50;3.30;;;30.60;99.90;;;;;;7286234;19;20181;-76
2023/08/24 06:30:40;;;;;;;9.40;3.13;;;31.10;99.90;;;;;;7308318;19;20177;-77
2023/08/24 06:33:07;;;;;;;7.63;2.80;;;31.30;99.90;;;;;;7284214;19;20193;-76
2023/08/24 06:35:33;;;;;;;7.60;3.30;;;31.50;99.90;;;;;;7287432;19;20185;-76
2023/08/24 06:38:00;;;;;;;6.32;2.80;;;31.50;99.90;;;;;;7286291;19;20192;-78
2023/08/24 06:40:25;;;;;;;8.05;3.00;;;31.50;99.90;;;;;;7285515;19;20197;-77
2023/08/24 06:42:51;;;;;;;6.63;3.05;;;31.80;99.90;;;;;;7284573;19;20192;-77
2023/08/24 06:45:18;;;;;;;6.63;2.95;;;32.00;99.90;;;;;;7285378;19;20189;-76
2023/08/24 06:47:44;;;;;;;6.28;3.17;;;32.20;99.90;;;;;;7286898;19;20200;-76
2023/08/24 06:50:10;;;;;;;9.23;3.35;;;32.00;99.90;;;;;;7285195;19;20189;-76
2023/08/24 06:52:36;;;;;;;7.45;3.10;;;31.40;99.90;;;;;;7307466;19;20177;-77
2023/08/24 06:55:03;;;;;;;11.52;3.55;;;31.20;99.90;;;;;;7284485;19;20318;-76
2023/08/24 06:57:29;;;;;;;9.18;3.35;;;30.80;99.90;;;;;;7284679;19;20560;-77
2023/08/24 06:59:55;;;;;;;9.40;3.35;;;30.20;99.90;;;;;;7285572;19;20257;-76
2023/08/24 07:02:20;;;;;;;9.65;3.58;;;30.20;99.90;;;;;;7285399;19;20252;-76
2023/08/24 07:04:46;;;;;;;8.18;3.28;;;30.60;99.90;;;;;;7283836;19;20200;-76
2023/08/24 07:07:12;;;;;;;9.00;3.40;;;31.00;99.90;;;;;;7286038;19;20678;-76
2023/08/24 07:09:38;;;;;;;12.35;3.72;;;31.60;99.90;;;;;;7290210;19;20189;-77
2023/08/24 07:12:06;;;;;;;9.35;3.28;;;31.80;99.90;;;;;;7306102;19;20196;-77
2023/08/24 07:14:33;;;;;;;6.68;3.35;;;32.10;99.90;;;;;;7285695;19;20644;-77
2023/08/24 07:16:59;;;;;;;11.43;3.67;;;32.10;99.90;;;;;;7284196;19;21052;-77
2023/08/24 07:19:24;;;;;;;8.63;3.38;;;32.10;99.90;;;;;;7285283;19;20304;-77
2023/08/24 07:21:50;;;;;;;12.40;3.55;;;32.20;99.90;;;;;;7285251;19;20189;-76
2023/08/24 07:24:19;;;;;;;10.68;3.55;;;32.30;99.90;;;;;;7283169;19;20691;-76
2023/08/24 07:26:45;;;;;;;8.27;3.38;;;32.10;99.90;;;;;;7283854;19;20968;-76
2023/08/24 07:29:11;;;;;;;7.78;3.25;;;32.10;99.90;;;;;;7283455;19;20189;-76
2023/08/24 07:31:37;;;;;;;7.78;3.33;;;31.80;99.90;;;;;;7302386;19;20289;-77
2023/08/24 07:34:03;;;;;;;10.35;3.60;;;31.60;99.90;;;;;;7300055;19;20213;-77
2023/08/24 07:36:32;;;;;;;7.55;3.60;;;31.50;99.90;;;;;;7284213;19;20191;-77
2023/08/24 07:38:58;;;;;;;7.88;3.33;;;31.50;99.90;;;;;;7285487;19;20252;-77
2023/08/24 07:41:23;;;;;;;8.00;3.20;;;31.40;99.90;;;;;;7283860;19;20927;-77
2023/08/24 07:43:49;;;;;;;7.85;3.17;;;31.30;99.90;;;;;;7283455;19;20256;-77
2023/08/24 07:46:15;;;;;;;7.88;3.67;;;31.00;99.90;;;;;;7283314;19;20197;-77
2023/08/24 07:48:41;;;;;;;9.77;3.50;;;30.70;99.90;;;;;;7284473;19;20232;-77
2023/08/24 07:51:08;;;;;;;8.35;4.00;;;30.60;99.90;;;;;;7305175;19;20210;-77
2023/08/24 07:53:34;;;;;;;6.63;3.35;;;30.40;99.90;;;;;;7285248;19;20590;-77
2023/08/24 07:56:01;;;;;;;9.20;4.15;;;30.40;99.90;;;;;;7283612;19;20221;-77
2023/08/24 07:58:27;;;;;;;8.75;4.15;;;30.20;99.90;;;;;;7283881;19;20206;-77
2023/08/24 08:00:53;;;;;;;10.77;3.92;;;30.10;99.90;;;;;;7283080;19;20204;-77
2023/08/24 08:03:20;;;;;;;11.98;4.13;;;30.00;99.90;;;;;;7281733;19;20193;-77
2023/08/24 08:05:46;;;;;;;10.18;3.78;;;29.80;99.90;;;;;;7282834;19;20275;-77
2023/08/24 08:08:15;;;;;;;9.52;3.80;;;29.50;99.90;;;;;;7284104;19;20189;-77
2023/08/24 08:10:42;;;;;;;7.93;3.70;;;29.50;99.90;;;;;;7283558;19;20181;-77
2023/08/24 08:13:11;;;;;;;8.27;3.67;;;29.50;99.90;;;;;;7295240;19;20192;-77
2023/08/24 08:15:38;;;;;;;7.65;3.38;;;29.40;99.90;;;;;;7305407;19;20188;-77
2023/08/24 08:18:04;;;;;;;8.38;3.70;;;29.40;99.90;;;;;;7282225;19;20189;-77
2023/08/24 08:20:31;;;;;;;9.77;3.97;;;29.30;99.90;;;;;;7283341;19;20195;-77
2023/08/24 08:22:58;;;;;;;11.98;4.07;;;29.20;99.90;;;;;;7283186;19;20185;-77
2023/08/24 08:25:24;;;;;;;8.27;3.85;;;29.20;99.90;;;;;;7282646;19;20270;-77
2023/08/24 08:27:50;;;;;;;10.07;4.25;;;29.30;99.90;;;;;;7282975;19;20185;-77
2023/08/24 08:30:16;;;;;;;9.88;4.00;;;29.30;99.90;;;;;;7282008;19;20244;-77
2023/08/24 08:32:41;;;;;;;8.82;3.78;;;29.30;99.90;;;;;;7281623;19;20252;-76
2023/08/24 08:35:08;;;;;;;9.85;4.03;;;29.40;99.90;;;;;;7303574;19;20675;-77
2023/08/24 08:37:36;;;;;;;10.48;4.18;;;29.40;99.90;;;;;;7305395;19;20187;-77
2023/08/24 08:40:05;;;;;;;9.77;4.35;;;29.50;99.90;;;;;;7283630;19;20528;-76
2023/08/24 08:42:33;;;;;;;11.90;4.25;;;29.50;99.90;;;;;;7281840;19;20237;-76
2023/08/24 08:45:02;;;;;;;15.40;4.18;;;29.40;99.90;;;;;;7282845;19;20195;-77
2023/08/24 08:47:28;;;;;;;9.43;3.65;;;29.40;99.90;;;;;;7284988;19;20704;-77
2023/08/24 08:49:55;;;;;;;7.10;3.55;;;29.50;99.90;;;;;;7282847;19;20214;-77
2023/08/24 08:52:21;;;;;;;12.77;4.25;;;29.60;99.90;;;;;;7281517;19;20181;-77
2023/08/24 08:54:47;;;;;;;9.43;3.92;;;29.70;99.90;;;;;;7281649;19;20181;-77
2023/08/24 08:57:14;;;;;;;9.02;4.38;;;29.80;99.90;;;;;;7282432;19;20192;-76
2023/08/24 08:59:41;;;;;;;9.35;3.72;;;29.90;99.90;;;;;;7280510;19;20207;-76
2023/08/24 09:02:12;;;;;;;9.82;3.97;;;29.90;99.90;;;;;;7303942;19;20184;-76
2023/08/24 09:04:38;;;;;;;10.30;4.22;;;29.50;99.90;;;;;;7277729;19;20303;-76
2023/08/24 09:07:10;;;;;;;11.73;3.92;;;29.10;99.90;;;;;;7301632;19;20180;-76
2023/08/24 09:09:36;;;;;;;18.27;4.85;;;28.80;99.90;;;;;;7281832;19;20252;-76
2023/08/24 09:12:05;;;;;;;11.60;4.07;;;28.80;99.90;;;;;;7280478;19;20177;-76
2023/08/24 09:14:30;;;;;;;9.25;3.92;;;28.60;99.90;;;;;;7281631;19;20192;-77
2023/08/24 09:16:56;;;;;;;9.50;4.20;;;28.50;99.90;;;;;;7279858;19;20180;-76
2023/08/24 09:19:29;;;;;;;9.10;3.80;;;28.40;99.90;;;;;;7280593;19;20188;-77
2023/08/24 09:21:58;;;;;;;12.98;4.50;;;28.10;99.90;;;;;;7281523;19;20192;-76
2023/08/24 09:24:31;;;;;;;11.98;4.80;;;27.90;99.90;;;;;;7281872;19;20546;-77
2023/08/24 09:26:57;;;;;;;10.45;4.72;;;27.80;99.90;;;;;;7281121;19;20194;-76
2023/08/24 09:29:23;;;;;;;13.30;5.10;;;27.60;99.90;;;;;;7282592;19;20527;-76
2023/08/24 09:31:51;;;;;;;13.77;5.93;;;27.40;99.90;;;;;;7279534;19;20189;-76
2023/08/24 09:34:22;;;;;;;21.17;7.28;;;26.80;99.90;;;;;;7280518;19;20531;-76
2023/08/24 09:36:48;;;;;;;15.02;7.63;;;26.00;99.90;;;;;;7280876;19;20534;-77
2023/08/24 09:39:16;;;;;;;14.55;7.50;;;25.40;99.90;;;;;;7280531;19;20221;-77
2023/08/24 09:41:47;;;;;;;15.77;8.27;;;24.80;99.90;;;;;;7279183;19;20185;-76
2023/08/24 09:44:13;;;;;;;18.43;8.20;;;24.30;99.90;;;;;;7280252;19;20181;-77
2023/08/24 09:46:40;;;;;;;19.03;8.77;;;23.90;99.90;;;;;;7288688;19;20907;-77
2023/08/24 09:49:09;;;;;;;21.93;9.60;;;23.40;99.90;;;;;;7303037;19;20188;-77
2023/08/24 09:51:36;;;;;;;19.03;10.00;;;23.20;99.90;;;;;;7280460;19;20196;-77
2023/08/24 09:54:08;;;;;;;17.00;9.67;;;22.90;99.90;;;;;;7281611;19;20202;-77
2023/08/24 09:56:43;;;;;;;19.50;10.03;;;22.90;99.90;;;;;;7279878;19;20188;-76
2023/08/24 09:59:21;;;;;;;20.50;8.83;;;22.80;99.90;;;;;;7264849;19;20220;-77
2023/08/24 10:01:49;;;;;;;17.87;8.70;;;22.70;99.90;;;;;;7285530;19;20549;-76
2023/08/24 10:04:17;;;;;;;15.97;8.30;;;22.60;99.90;;;;;;7285582;19;20196;-77
2023/08/24 10:06:44;;;;;;;18.93;8.67;;;22.60;99.90;;;;;;7284782;19;20191;-77
2023/08/24 10:09:20;;;;;;;19.20;7.93;;;22.60;99.90;;;;;;7286701;19;20198;-77
2023/08/24 10:11:52;;;;;;;17.30;8.43;;;22.60;99.90;;;;;;7286016;19;20181;-77
2023/08/24 10:14:39;;;;;;;23.17;8.20;;;22.70;99.90;;;;;;7286149;19;20181;-77
2023/08/24 10:17:06;;;;;;;26.20;8.63;;;22.60;99.90;;;;;;7284930;19;20191;-77
2023/08/24 10:19:32;;;;;;;19.30;9.70;;;22.70;99.90;;;;;;7284814;19;20281;-78
2023/08/24 10:22:00;;;;;;;18.53;8.73;;;22.70;99.90;;;;;;7285327;19;20185;-77
2023/08/24 10:24:27;;;;;;;24.47;9.77;;;22.60;99.90;;;;;;7286347;19;20188;-78
2023/08/24 10:26:54;;;;;;;24.20;10.60;;;22.50;99.90;;;;;;7287366;19;20193;-77
2023/08/24 10:29:20;;;;;;;22.00;9.80;;;22.40;99.90;;;;;;7287485;19;20259;-79
2023/08/24 10:31:48;;;;;;;19.77;9.10;;;22.10;99.90;;;;;;7283839;19;20695;-78
2023/08/24 10:34:14;;;;;;;19.27;10.30;;;21.80;99.90;;;;;;7287558;19;20189;-77
2023/08/24 10:36:40;;;;;;;21.40;10.77;;;21.60;99.90;;;;;;7285769;19;20183;-77
2023/08/24 10:39:06;;;;;;;15.50;8.80;;;21.50;99.90;;;;;;7307836;19;20186;-78
2023/08/24 10:41:52;;;;;;;20.63;10.00;;;21.40;99.90;;;;;;7286942;19;20703;-77
2023/08/24 10:44:37;;;;;;;19.07;9.70;;;21.50;99.90;;;;;;7183195;19;2004999;-77
2023/08/24 10:47:15;;;;;;;14.97;9.03;;;21.60;99.90;;;;;;7286092;19;20185;-76
2023/08/24 10:49:45;;;;;;;17.00;8.80;;;21.70;99.90;;;;;;7259407;19;20184;-76
2023/08/24 10:52:39;;;;;;;17.70;7.93;;;21.80;99.90;;;;;;7284257;19;20188;-76
2023/08/24 10:55:21;;;;;;;17.53;8.23;;;21.90;99.90;;;;;;7287934;19;20219;-76
2023/08/24 10:57:59;;;;;;;17.83;8.73;;;22.00;99.90;;;;;;7182670;19;2004653;-76
2023/08/24 11:00:28;;;;;;;16.27;8.50;;;22.40;99.90;;;;;;7285794;19;20681;-76
2023/08/24 11:02:55;;;;;;;18.10;9.13;;;22.60;99.90;;;;;;7284067;19;20185;-77
2023/08/24 11:05:33;;;;;;;17.53;9.07;;;22.70;99.90;;;;;;7284573;19;20193;-76
2023/08/24 11:08:01;;;;;;;15.87;9.23;;;22.80;99.90;;;;;;7288148;19;20550;-77
2023/08/24 11:10:42;;;;;;;17.57;9.20;;;22.90;99.90;;;;;;7285029;19;20188;-76
2023/08/24 11:13:12;;;;;;;15.67;9.37;;;22.80;99.90;;;;;;7282321;19;20213;-76
2023/08/24 11:15:40;;;;;;;15.17;9.27;;;22.80;99.90;;;;;;7298086;19;20189;-76
2023/08/24 11:18:18;;;;;;;14.30;9.27;;;22.90;99.90;;;;;;7305410;19;20311;-77
2023/08/24 11:20:44;;;;;;;15.90;8.20;;;23.00;99.90;;;;;;7184312;19;2004536;-77
2023/08/24 11:23:11;;;;;;;15.07;9.40;;;23.20;99.90;;;;;;7286492;19;20652;-77
2023/08/24 11:25:37;;;;;;;13.83;8.73;;;23.40;99.90;;;;;;7305510;19;20184;-77
2023/08/24 11:28:06;;;;;;;17.00;8.80;;;23.70;99.90;;;;;;7286855;19;20188;-77
2023/08/24 11:30:33;;;;;;;13.23;6.30;;;23.80;99.90;;;;;;7284884;19;20184;-77
2023/08/24 11:32:59;;;;;;;10.73;6.43;;;23.70;99.90;;;;;;7285726;19;20186;-76
2023/08/24 11:35:25;;;;;;;13.33;7.13;;;23.90;99.90;;;;;;7284668;19;20189;-76
2023/08/24 11:37:55;;;;;;;16.30;6.50;;;24.00;99.90;;;;;;7284928;19;20193;-78
2023/08/24 11:40:26;;;;;;;12.83;6.57;;;24.20;99.90;;;;;;7283808;19;20661;-78
2023/08/24 11:42:55;;;;;;;13.33;6.53;;;24.30;99.90;;;;;;7284599;19;20671;-77
2023/08/24 11:45:22;;;;;;;11.93;6.23;;;24.20;99.90;;;;;;7284784;19;20193;-75
2023/08/24 11:47:48;;;;;;;10.80;6.10;;;24.30;99.90;;;;;;7284826;19;20193;-75
2023/08/24 11:50:14;;;;;;;13.37;5.93;;;24.10;99.90;;;;;;7284121;19;20585;-77
2023/08/24 11:52:43;;;;;;;12.30;6.10;;;24.00;99.90;;;;;;7284779;19;20188;-76
2023/08/24 11:55:10;;;;;;;12.70;6.43;;;24.00;99.90;;;;;;7292752;19;20192;-76
2023/08/24 11:57:36;;;;;;;12.77;6.40;;;24.10;99.90;;;;;;7306430;19;20181;-77
2023/08/24 12:00:04;;;;;;;13.23;6.47;;;23.80;99.90;;;;;;7283497;19;20603;-78
2023/08/24 12:02:33;;;;;;;16.33;6.33;;;23.60;99.90;;;;;;7284863;19;20203;-77
2023/08/24 12:04:59;;;;;;;12.43;6.13;;;23.40;99.90;;;;;;7283593;19;20543;-77
2023/08/24 12:07:28;;;;;;;13.53;7.17;;;23.40;99.90;;;;;;7283835;19;20231;-77
2023/08/24 12:09:55;;;;;;;15.57;6.83;;;23.40;99.90;;;;;;7286073;19;20192;-76
2023/08/24 12:12:23;;;;;;;21.73;8.13;;;23.40;99.90;;;;;;7284276;19;20196;-76
2023/08/24 12:14:49;;;;;;;18.07;6.90;;;23.10;99.90;;;;;;7283857;19;20532;-77
2023/08/24 12:17:16;;;;;;;17.53;7.37;;;22.80;99.90;;;;;;7284392;19;20193;-76
2023/08/24 12:19:55;;;;;;;15.33;8.33;;;22.50;99.90;;;;;;7283006;19;20196;-76
2023/08/24 12:22:21;;;;;;;13.77;8.37;;;22.40;99.90;;;;;;7281664;19;20204;-77
2023/08/24 12:24:47;;;;;;;18.50;10.03;;;22.20;99.90;;;;;;7278643;19;20309;-77
2023/08/24 12:27:22;;;;;;;17.73;9.50;;;22.00;99.90;;;;;;7281432;19;20220;-77
2023/08/24 12:29:48;;;;;;;18.87;9.03;;;21.70;99.90;;;;;;7283343;19;20203;-77
2023/08/24 12:32:19;;;;;;;18.60;8.87;;;21.40;99.90;;;;;;7283680;19;20199;-77
2023/08/24 12:34:46;;;;;;;19.20;9.30;;;21.30;99.90;;;;;;7281630;19;20319;-78
2023/08/24 12:37:12;;;;;;;14.47;7.80;;;21.20;99.90;;;;;;7282057;19;20257;-78
2023/08/24 12:39:39;;;;;;;16.87;7.93;;;21.00;99.90;;;;;;7305445;19;20707;-78